Time;durP1;ratioP1;P1;durP2;ratioP2;P2;SDS_P1;SDS_P2;PMS_P1;PMS_P2;Temp;Humidity;BMP_temperature;BMP_pressure;BME280_temperature;BME280_humidity;BME280_pressure;Samples;Min_cycle;Max_cycle;Signal;HPM_P1;HPM_P2
2022/08/20 00:01:25;;;;;;;21.47;12.93;;;;;;;18.23;100.00;101441.88;5049336;28;20057;-80
2022/08/20 00:03:50;;;;;;;24.43;14.40;;;;;;;18.21;100.00;101436.75;5049668;28;20418;-80
2022/08/20 00:06:18;;;;;;;21.60;13.70;;;;;;;18.20;100.00;101440.56;5050024;28;20104;-80
2022/08/20 00:08:45;;;;;;;23.40;14.05;;;;;;;18.25;100.00;101450.53;5049372;28;20036;-81
2022/08/20 00:11:13;;;;;;;25.20;14.70;;;;;;;18.24;100.00;101438.06;5049389;28;20032;-80
2022/08/20 00:13:42;;;;;;;25.02;14.63;;;;;;;18.22;100.00;101440.25;5049270;28;20468;-80
2022/08/20 00:16:09;;;;;;;22.20;13.55;;;;;;;18.23;100.00;101437.28;5050078;28;20040;-80
2022/08/20 00:18:36;;;;;;;25.13;14.52;;;;;;;18.21;100.00;101444.91;5049556;28;20055;-80
2022/08/20 00:21:03;;;;;;;23.77;14.83;;;;;;;18.22;100.00;101434.84;5049344;28;21056;-80
2022/08/20 00:23:28;;;;;;;21.80;15.30;;;;;;;18.20;100.00;101426.19;5049222;28;20279;-80
2022/08/20 00:25:53;;;;;;;25.73;14.70;;;;;;;18.19;100.00;101430.81;5049731;28;20406;-80
2022/08/20 00:28:19;;;;;;;24.87;14.30;;;;;;;18.16;100.00;101428.69;5049617;28;20107;-80
2022/08/20 00:30:45;;;;;;;26.40;15.33;;;;;;;18.17;100.00;101427.59;5049178;28;20408;-80
2022/08/20 00:33:15;;;;;;;24.13;14.43;;;;;;;18.12;100.00;101419.53;5049188;28;20029;-83
2022/08/20 00:35:44;;;;;;;24.05;15.15;;;;;;;18.18;100.00;101434.63;5049247;28;20112;-80
2022/08/20 00:38:10;;;;;;;23.75;14.20;;;;;;;18.11;100.00;101417.91;5049852;28;20031;-80
2022/08/20 00:40:46;;;;;;;25.83;15.03;;;;;;;18.16;100.00;101431.41;5050701;28;20024;-80
2022/08/20 00:43:48;;;;;;;26.10;14.45;;;;;;;18.15;100.00;101436.03;5053259;28;20651;-80
2022/08/20 00:46:24;;;;;;;28.45;14.43;;;;;;;18.17;100.00;101433.03;5021345;28;20397;-80
2022/08/20 00:48:52;;;;;;;27.67;14.20;;;;;;;18.17;100.00;101436.53;5053334;28;20118;-80
2022/08/20 00:51:26;;;;;;;24.92;15.07;;;;;;;18.19;100.00;101430.81;5053073;28;20048;-80
2022/08/20 00:53:55;;;;;;;25.25;14.13;;;;;;;18.13;100.00;101429.28;5052918;28;20090;-80
2022/08/20 00:56:21;;;;;;;24.80;14.50;;;;;;;18.17;100.00;101427.59;5053111;28;20392;-80
2022/08/20 00:58:47;;;;;;;25.37;14.80;;;;;;;18.14;100.00;101433.59;5053234;28;20056;-80
2022/08/20 01:01:14;;;;;;;21.83;14.87;;;;;;;18.12;100.00;101419.53;5052437;28;20931;-80
2022/08/20 01:03:41;;;;;;;27.30;14.50;;;;;;;18.19;100.00;101441.66;5052667;28;20032;-80
2022/08/20 01:06:10;;;;;;;28.23;15.65;;;;;;;18.15;100.00;101432.50;5035239;28;20132;-80
2022/08/20 01:08:37;;;;;;;23.50;14.73;;;;;;;18.14;100.00;101428.19;5053132;28;20080;-80
2022/08/20 01:11:08;;;;;;;24.80;14.20;;;;;;;18.14;100.00;101423.56;5052107;28;20033;-80
2022/08/20 01:13:36;;;;;;;24.23;14.70;;;;;;;18.11;100.00;101421.44;5052905;28;20477;-80
2022/08/20 01:16:08;;;;;;;25.70;14.77;;;;;;;18.03;100.00;101413.19;5052964;28;20025;-80
2022/08/20 01:18:35;;;;;;;23.10;14.30;;;;;;;18.16;100.00;101432.22;5053096;28;20496;-80
2022/08/20 01:21:04;;;;;;;23.52;14.05;;;;;;;18.11;100.00;101416.03;5034239;28;20025;-80
2022/08/20 01:23:30;;;;;;;23.70;13.93;;;;;;;18.16;100.00;101434.13;5052658;28;20032;-80
2022/08/20 01:26:28;;;;;;;21.40;13.67;;;;;;;18.14;100.00;101433.59;5052487;28;20651;-80
2022/08/20 01:28:55;;;;;;;20.90;13.60;;;;;;;18.12;100.00;101430.38;5040174;28;20451;-80
2022/08/20 01:31:23;;;;;;;25.47;14.53;;;;;;;18.07;100.00;101427.75;5052254;28;20616;-80
2022/08/20 01:33:51;;;;;;;25.45;14.93;;;;;;;18.03;100.00;101422.09;5051956;28;20029;-80
2022/08/20 01:36:22;;;;;;;27.42;15.77;;;;;;;18.00;100.00;101431.63;5052522;28;20037;-80
2022/08/20 01:38:48;;;;;;;29.23;15.80;;;;;;;18.03;100.00;101432.16;5051987;28;20079;-80
2022/08/20 01:41:20;;;;;;;27.17;15.30;;;;;;;18.03;100.00;101429.44;5034072;28;20021;-81
2022/08/20 01:43:47;;;;;;;25.90;15.38;;;;;;;18.00;100.00;101434.34;5033948;28;20389;-80
2022/08/20 01:46:13;;;;;;;26.10;15.60;;;;;;;17.94;100.00;101424.63;5052360;28;20025;-80
2022/08/20 01:48:40;;;;;;;25.67;14.73;;;;;;;17.97;100.00;101436.81;5051823;28;20036;-80
2022/08/20 01:51:11;;;;;;;30.10;16.00;;;;;;;17.95;100.00;101428.16;5051393;28;20028;-80
2022/08/20 01:53:43;;;;;;;28.50;16.00;;;;;;;17.85;100.00;101429.13;5051221;28;20025;-80
2022/08/20 01:56:13;;;;;;;33.30;16.80;;;;;;;17.82;100.00;101433.19;5052252;28;20067;-80
2022/08/20 01:58:41;;;;;;;30.05;16.02;;;;;;;17.80;100.00;101435.41;5051018;28;20025;-80
2022/08/20 02:01:16;;;;;;;32.08;16.83;;;;;;;17.80;100.00;101435.41;5051750;28;20381;-80
2022/08/20 02:03:42;;;;;;;29.58;16.77;;;;;;;17.77;100.00;101430.59;5051775;28;20032;-80
2022/08/20 02:06:09;;;;;;;30.85;16.75;;;;;;;17.78;100.00;101437.63;5034021;28;20075;-80
2022/08/20 02:08:34;;;;;;;32.30;17.87;;;;;;;17.80;100.00;101429.97;5051990;28;20090;-80
2022/08/20 02:10:59;;;;;;;36.80;18.43;;;;;;;17.75;100.00;101427.34;5050762;28;20691;-80
2022/08/20 02:13:25;;;;;;;31.37;17.43;;;;;;;17.78;100.00;101439.50;5051875;28;20033;-80
2022/08/20 02:15:50;;;;;;;33.63;18.13;;;;;;;17.76;100.00;101439.00;5051352;28;20029;-80
2022/08/20 02:18:16;;;;;;;36.00;18.67;;;;;;;17.71;100.00;101437.16;5051695;28;20031;-80
2022/08/20 02:20:42;;;;;;;38.58;18.48;;;;;;;17.72;100.00;101441.47;5050682;28;20059;-80
2022/08/20 02:23:09;;;;;;;38.30;18.73;;;;;;;17.73;100.00;101434.16;5051810;28;20021;-80
2022/08/20 02:25:36;;;;;;;40.40;19.70;;;;;;;17.76;100.00;101442.53;5051484;28;20036;-80
2022/08/20 02:28:05;;;;;;;38.90;20.03;;;;;;;17.79;100.00;101447.38;5051531;28;20314;-80
2022/08/20 02:30:37;;;;;;;38.25;18.88;;;;;;;17.81;100.00;101439.72;5050576;28;20035;-80
2022/08/20 02:33:05;;;;;;;36.60;19.67;;;;;;;17.79;100.00;101438.41;5051190;28;20025;-80
2022/08/20 02:35:33;;;;;;;40.08;19.95;;;;;;;17.82;100.00;101441.34;5051417;28;20029;-80
2022/08/20 02:37:58;;;;;;;35.88;20.38;;;;;;;17.80;100.00;101431.91;5051220;28;20025;-80
2022/08/20 02:40:26;;;;;;;38.80;21.20;;;;;;;17.80;100.00;101442.72;5050665;28;20024;-80
2022/08/20 02:42:52;;;;;;;40.10;20.38;;;;;;;17.82;100.00;101438.63;5050690;28;20033;-80
2022/08/20 02:45:21;;;;;;;44.78;21.33;;;;;;;17.82;100.00;101452.19;5050805;28;20083;-80
2022/08/20 02:47:46;;;;;;;49.95;23.92;;;;;;;17.77;100.00;101443.31;5048427;28;20075;-80
2022/08/20 02:50:15;;;;;;;44.37;21.53;;;;;;;17.82;100.00;101449.47;5050616;28;20064;-80
2022/08/20 02:52:41;;;;;;;54.55;23.88;;;;;;;17.81;100.00;101453.28;5050416;28;20025;-80
2022/08/20 02:55:08;;;;;;;48.10;24.75;;;;;;;17.78;100.00;101453.88;5050829;28;20029;-80
2022/08/20 02:57:33;;;;;;;57.15;24.75;;;;;;;17.72;100.00;101444.19;5051085;28;20048;-80
2022/08/20 02:59:59;;;;;;;63.07;26.47;;;;;;;17.71;100.00;101443.38;5050257;28;20567;-80
2022/08/20 03:02:24;;;;;;;53.58;25.80;;;;;;;17.74;100.00;101449.31;5050083;28;20039;-80
2022/08/20 03:04:49;;;;;;;52.17;24.87;;;;;;;17.77;100.00;101460.41;5050549;28;20111;-80
2022/08/20 03:07:15;;;;;;;54.03;26.57;;;;;;;17.61;100.00;101438.09;5050725;28;20444;-80
2022/08/20 03:09:41;;;;;;;52.28;25.95;;;;;;;17.66;100.00;101450.75;5050126;28;20036;-80
2022/08/20 03:12:07;;;;;;;52.80;25.93;;;;;;;17.70;100.00;101454.50;5050449;28;20372;-80
2022/08/20 03:14:33;;;;;;;60.83;27.20;;;;;;;17.73;100.00;101450.41;5050414;28;20032;-80
2022/08/20 03:16:58;;;;;;;56.88;27.80;;;;;;;17.68;100.00;101456.72;5050574;28;20029;-80
2022/08/20 03:19:24;;;;;;;56.87;26.63;;;;;;;17.66;100.00;101462.44;5050450;28;20362;-80
2022/08/20 03:21:49;;;;;;;56.87;28.00;;;;;;;17.64;100.00;101453.78;5049639;28;20050;-80
2022/08/20 03:24:14;;;;;;;53.53;27.80;;;;;;;17.64;100.00;101452.97;5050172;28;20021;-80
2022/08/20 03:26:40;;;;;;;55.23;27.60;;;;;;;17.65;100.00;101452.69;5049940;28;20065;-80
2022/08/20 03:29:05;;;;;;;46.30;25.20;;;;;;;17.59;100.00;101448.41;5050459;28;20435;-80
2022/08/20 03:31:31;;;;;;;55.30;26.67;;;;;;;17.62;100.00;101460.59;5049530;28;20024;-79
2022/08/20 03:33:56;;;;;;;47.97;26.05;;;;;;;17.64;100.00;101461.09;5049754;28;20025;-80
2022/08/20 03:36:23;;;;;;;59.10;28.13;;;;;;;17.58;100.00;101460.34;5049981;28;20047;-80
2022/08/20 03:38:48;;;;;;;53.70;27.83;;;;;;;17.56;100.00;101462.53;5049958;28;20013;-80
2022/08/20 03:41:13;;;;;;;52.53;26.50;;;;;;;17.61;100.00;101470.63;5049493;28;20033;-80
2022/08/20 03:43:40;;;;;;;52.13;27.63;;;;;;;17.58;100.00;101465.78;5049984;28;20029;-80
2022/08/20 03:46:06;;;;;;;58.22;28.13;;;;;;;17.59;100.00;101463.88;5050052;28;20059;-80
2022/08/20 03:48:31;;;;;;;57.67;29.63;;;;;;;17.57;100.00;101461.44;5049876;28;20373;-80
2022/08/20 03:50:59;;;;;;;54.83;28.70;;;;;;;17.59;100.00;101472.81;5048944;28;20416;-81
2022/08/20 03:53:25;;;;;;;55.63;28.57;;;;;;;17.58;100.00;101460.34;5049992;28;20044;-80
2022/08/20 03:55:53;;;;;;;56.27;29.57;;;;;;;17.54;100.00;101465.56;5049705;28;20333;-80
2022/08/20 03:58:18;;;;;;;60.92;30.73;;;;;;;17.55;100.00;101472.59;5050093;28;20021;-80
2022/08/20 04:00:48;;;;;;;64.97;31.25;;;;;;;17.54;100.00;101468.25;5048773;28;20400;-80
2022/08/20 04:03:14;;;;;;;55.80;29.17;;;;;;;17.54;100.00;101470.97;5050132;28;20020;-80
2022/08/20 04:05:40;;;;;;;47.67;27.70;;;;;;;17.51;100.00;101466.13;5049623;28;20330;-80
2022/08/20 04:08:14;;;;;;;56.78;27.48;;;;;;;17.46;100.00;101465.38;5049743;28;20518;-80
2022/08/20 04:10:40;;;;;;;50.97;27.60;;;;;;;17.50;100.00;101477.25;5030877;28;20025;-80
2022/08/20 04:13:06;;;;;;;53.17;27.27;;;;;;;17.46;100.00;101477.00;5049877;28;20476;-80
2022/08/20 04:15:34;;;;;;;54.50;26.95;;;;;;;17.43;100.00;101471.38;5051664;28;20040;-80
2022/08/20 04:18:00;;;;;;;59.20;27.60;;;;;;;17.42;100.00;101484.13;5053218;28;20066;-80
2022/08/20 04:20:25;;;;;;;51.63;26.53;;;;;;;17.35;100.00;101476.31;5053208;28;20411;-81
2022/08/20 04:22:54;;;;;;;56.28;25.92;;;;;;;17.33;100.00;101481.25;5053268;28;20036;-80
2022/08/20 04:25:20;;;;;;;46.67;23.73;;;;;;;17.31;100.00;101488.03;5053968;28;20365;-80
2022/08/20 04:27:46;;;;;;;47.95;24.70;;;;;;;17.24;100.00;101485.66;5053395;28;20021;-81
2022/08/20 04:30:13;;;;;;;50.37;24.63;;;;;;;17.19;100.00;101491.13;5053242;28;20032;-80
2022/08/20 04:32:40;;;;;;;48.00;23.60;;;;;;;17.13;100.00;101482.25;5052906;28;20267;-81
2022/08/20 04:35:07;;;;;;;44.28;23.45;;;;;;;17.12;100.00;101485.25;5035579;28;20112;-80
2022/08/20 04:37:33;;;;;;;46.95;23.23;;;;;;;17.05;100.00;101480.97;5053318;28;20029;-80
2022/08/20 04:42:50;;;;;;;53.35;22.67;;;;;;;17.10;100.00;101494.47;5052604;28;20179;-80
2022/08/20 04:45:16;;;;;;;48.33;23.10;;;;;;;17.10;100.00;101496.34;5053390;28;20104;-80
2022/08/20 04:47:42;;;;;;;47.53;23.93;;;;;;;17.01;100.00;101492.66;5053449;28;20776;-80
2022/08/20 04:50:09;;;;;;;48.00;23.17;;;;;;;17.08;100.00;101504.78;5052664;28;20021;-80
2022/08/20 04:52:34;;;;;;;54.53;25.42;;;;;;;17.06;100.00;101503.44;5052982;28;20112;-80
2022/08/20 04:55:00;;;;;;;47.30;25.53;;;;;;;17.05;100.00;101510.75;5052741;28;20104;-80
2022/08/20 04:57:26;;;;;;;51.70;26.20;;;;;;;17.03;100.00;101518.34;5053348;28;20472;-80
2022/08/20 04:59:52;;;;;;;52.40;27.37;;;;;;;17.02;100.00;101519.44;5052170;28;20032;-81
2022/08/20 05:02:19;;;;;;;53.78;29.23;;;;;;;17.04;100.00;101525.38;5053068;28;20036;-80
2022/08/20 05:04:45;;;;;;;52.45;28.80;;;;;;;17.06;100.00;101525.91;5052583;28;20025;-80
2022/08/20 05:07:12;;;;;;;53.70;29.98;;;;;;;17.05;100.00;101527.00;5053052;28;20110;-80
2022/08/20 05:09:37;;;;;;;56.10;30.23;;;;;;;17.06;100.00;101525.09;5052366;28;20029;-80
2022/08/20 05:12:03;;;;;;;56.10;31.03;;;;;;;17.06;100.00;101525.09;5052745;28;20071;-80
2022/08/20 05:14:28;;;;;;;57.85;31.77;;;;;;;17.09;100.00;101528.03;5053175;28;20061;-80
2022/08/20 05:16:56;;;;;;;59.03;31.60;;;;;;;17.05;100.00;101535.13;5052725;28;20028;-80
2022/08/20 05:19:22;;;;;;;57.30;32.08;;;;;;;17.12;100.00;101534.78;5052733;28;20021;-80
2022/08/20 05:21:47;;;;;;;59.27;32.20;;;;;;;17.12;100.00;101534.00;5051782;28;20029;-80
2022/08/20 05:24:13;;;;;;;61.88;33.25;;;;;;;17.13;100.00;101538.31;5052929;28;20094;-80
2022/08/20 05:26:39;;;;;;;67.47;33.80;;;;;;;17.18;100.00;101530.13;5051990;28;20029;-80
2022/08/20 05:29:05;;;;;;;67.55;34.67;;;;;;;17.21;100.00;101532.25;5052370;28;20040;-80
2022/08/20 05:31:32;;;;;;;58.97;34.58;;;;;;;17.27;100.00;101531.13;5033907;28;20067;-80
2022/08/20 05:33:57;;;;;;;65.82;35.33;;;;;;;17.21;100.00;101521.44;5052504;28;20074;-80
2022/08/20 05:36:22;;;;;;;60.87;34.50;;;;;;;17.28;100.00;101524.63;5052364;28;20029;-80
2022/08/20 05:38:48;;;;;;;66.10;34.87;;;;;;;17.25;100.00;101523.28;5052103;28;20060;-80
2022/08/20 05:41:13;;;;;;;69.67;36.17;;;;;;;17.31;100.00;101531.34;5051620;28;20047;-80
2022/08/20 05:43:39;;;;;;;65.28;35.67;;;;;;;17.39;100.00;101541.56;5052123;28;20029;-81
2022/08/20 05:46:04;;;;;;;61.93;34.70;;;;;;;17.43;100.00;101536.38;5052520;28;20453;-80
2022/08/20 05:48:30;;;;;;;66.77;36.67;;;;;;;17.48;100.00;101541.75;5052101;28;20025;-80
2022/08/20 05:50:55;;;;;;;66.15;35.03;;;;;;;17.57;100.00;101545.44;5051610;28;20021;-80
2022/08/20 05:53:22;;;;;;;60.57;34.20;;;;;;;17.64;100.00;101542.38;5052118;28;20032;-80
2022/08/20 05:55:49;;;;;;;71.38;34.75;;;;;;;17.66;100.00;101546.44;5051957;28;20464;-80
2022/08/20 05:58:23;;;;;;;57.33;34.63;;;;;;;17.64;100.00;101545.91;5051751;28;20036;-80
2022/08/20 06:00:49;;;;;;;67.30;32.72;;;;;;;17.68;100.00;101556.97;5051483;28;20025;-80
2022/08/20 06:05:58;;;;;;;63.33;32.87;;;;;;;17.87;100.00;101554.34;5052011;28;20044;-80
2022/08/20 06:08:24;;;;;;;60.43;32.00;;;;;;;17.93;100.00;101561.28;5051609;28;20284;-80
2022/08/20 06:10:49;;;;;;;64.07;33.53;;;;;;;17.88;100.00;101547.81;5050810;28;20487;-80
2022/08/20 06:13:15;;;;;;;68.68;33.50;;;;;;;17.92;100.00;101556.97;5051548;28;20059;-80
2022/08/20 06:15:40;;;;;;;65.60;32.87;;;;;;;17.90;100.00;101566.50;5051546;28;20122;-80
2022/08/20 06:18:07;;;;;;;66.47;33.43;;;;;;;17.88;100.00;101563.25;5051590;28;20017;-80
2022/08/20 06:20:37;;;;;;;63.10;32.58;;;;;;;17.91;100.00;101570.81;5051149;28;20039;-80
2022/08/20 06:23:03;;;;;;;56.67;31.50;;;;;;;17.99;100.00;101568.31;5051712;28;20451;-80
2022/08/20 06:25:29;;;;;;;64.32;33.67;;;;;;;18.01;100.00;101566.09;5051105;28;20025;-80
2022/08/20 06:27:54;;;;;;;60.37;33.20;;;;;;;18.02;100.00;101566.91;5050860;28;20098;-80
2022/08/20 06:30:20;;;;;;;62.50;33.07;;;;;;;18.08;100.00;101567.66;5050815;28;20028;-80
2022/08/20 06:32:45;;;;;;;62.38;32.45;;;;;;;18.06;100.00;101564.44;5051350;28;20082;-80
2022/08/20 06:35:11;;;;;;;63.53;32.63;;;;;;;18.12;100.00;101564.06;5051210;28;20029;-80
2022/08/20 06:37:39;;;;;;;67.10;33.67;;;;;;;18.20;100.00;101568.03;5050605;28;20461;-80
2022/08/20 06:40:12;;;;;;;62.22;33.15;;;;;;;18.41;100.00;101578.63;5050416;28;20017;-80
2022/08/20 06:42:42;;;;;;;66.97;32.92;;;;;;;18.52;100.00;101571.94;5050955;28;20025;-80
2022/08/20 06:45:15;;;;;;;67.35;33.25;;;;;;;18.55;100.00;101573.25;5050964;28;20488;-80
2022/08/20 06:47:42;;;;;;;63.83;32.83;;;;;;;18.66;100.00;101576.63;5050850;28;20377;-80
2022/08/20 06:50:13;;;;;;;64.63;32.23;;;;;;;18.92;100.00;101571.59;5050292;28;20681;-80
2022/08/20 06:52:39;;;;;;;61.42;30.17;;;;;;;19.04;100.00;101571.16;5050648;28;20068;-80
2022/08/20 06:55:07;;;;;;;54.63;29.73;;;;;;;19.17;100.00;101562.25;5051084;28;20087;-80
2022/08/20 06:57:35;;;;;;;58.28;30.85;;;;;;;19.27;100.00;101577.56;5051036;28;20345;-80
2022/08/20 07:00:02;;;;;;;52.75;28.60;;;;;;;19.22;100.00;101567.59;5050216;28;20120;-80
2022/08/20 07:02:28;;;;;;;53.50;30.73;;;;;;;19.33;100.00;101575.59;5050694;28;20021;-80
2022/08/20 07:04:54;;;;;;;58.20;29.83;;;;;;;19.27;100.00;101580.28;5050313;28;20507;-80
2022/08/20 07:07:19;;;;;;;55.92;29.10;;;;;;;19.33;100.00;101570.94;5032775;28;20021;-81
2022/08/20 07:09:45;;;;;;;52.77;29.00;;;;;;;19.56;100.00;101570.25;5050115;28;20036;-81
2022/08/20 07:12:11;;;;;;;54.03;28.88;;;;;;;20.05;100.00;101574.22;5050333;28;20476;-81
2022/08/20 07:14:36;;;;;;;51.78;29.77;;;;;;;20.49;100.00;101576.53;5049621;28;20041;-81
2022/08/20 07:17:03;;;;;;;51.13;29.23;;;;;;;20.60;100.00;101583.38;5050577;28;20385;-81
2022/08/20 07:19:28;;;;;;;46.90;28.17;;;;;;;20.72;100.00;101586.34;5050437;28;20043;-82
2022/08/20 07:21:53;;;;;;;48.73;29.23;;;;;;;20.66;100.00;101579.41;5049494;28;20477;-80
2022/08/20 07:24:19;;;;;;;42.73;26.07;;;;;;;20.54;100.00;101585.38;5050412;28;20029;-81
2022/08/20 07:26:44;;;;;;;49.22;27.27;;;;;;;20.52;100.00;101594.97;5050418;28;20029;-80
2022/08/20 07:29:10;;;;;;;46.47;26.97;;;;;;;20.49;100.00;101595.59;5050259;28;20037;-80
2022/08/20 07:34:20;;;;;;;44.40;25.98;;;;;;;20.75;100.00;101600.47;5049822;28;20504;-80
2022/08/20 07:36:47;;;;;;;46.35;28.15;;;;;;;20.78;100.00;101599.88;5049613;28;20118;-80
2022/08/20 07:39:13;;;;;;;48.05;27.92;;;;;;;20.75;100.00;101611.34;5050229;28;20025;-80
2022/08/20 07:41:38;;;;;;;45.67;27.80;;;;;;;20.85;100.00;101611.13;5049592;28;20495;-80
2022/08/20 07:44:04;;;;;;;44.73;27.40;;;;;;;20.95;100.00;101613.63;5049669;28;20056;-80
2022/08/20 07:46:30;;;;;;;45.37;26.63;;;;;;;20.92;100.00;101616.97;5050189;28;20036;-80
2022/08/20 07:48:55;;;;;;;43.60;26.25;;;;;;;20.81;100.00;101607.44;5049416;28;20093;-80
2022/08/20 07:51:21;;;;;;;39.20;26.20;;;;;;;20.68;100.00;101617.22;5048820;28;20033;-80
2022/08/20 07:53:49;;;;;;;40.95;25.17;;;;;;;20.56;100.00;101626.72;5031468;28;20021;-80
2022/08/20 07:56:18;;;;;;;39.55;23.95;;;;;;;20.52;100.00;101622.19;5050099;28;20074;-80
2022/08/20 07:58:49;;;;;;;34.10;21.38;;;;;;;20.72;100.00;101634.56;5032006;28;20075;-80
2022/08/20 08:01:17;;;;;;;31.70;21.50;;;;;;;20.76;100.00;101641.00;5031468;28;20053;-80
2022/08/20 08:03:42;;;;;;;36.25;21.83;;;;;;;20.60;100.00;101628.81;5049369;28;20025;-80
2022/08/20 08:06:08;;;;;;;42.57;22.40;;;;;;;20.60;100.00;101634.28;5049894;28;20044;-80
2022/08/20 08:08:35;;;;;;;32.83;21.00;;;;;;;20.47;99.71;101627.75;5050221;28;20515;-80
2022/08/20 08:11:02;;;;;;;37.10;22.60;;;;;;;20.52;100.00;101631.19;5048854;28;20037;-80
2022/08/20 08:13:32;;;;;;;38.40;21.88;;;;;;;20.96;100.00;101633.47;5049904;28;20025;-80
2022/08/20 08:16:00;;;;;;;34.65;21.80;;;;;;;21.52;98.02;101636.72;5049415;28;20047;-80
2022/08/20 08:18:30;;;;;;;29.55;19.80;;;;;;;21.99;95.30;101639.03;5031990;28;20435;-80
2022/08/20 08:20:56;;;;;;;30.23;18.50;;;;;;;22.41;92.76;101635.91;5049033;28;20039;-80
2022/08/20 08:23:22;;;;;;;30.08;19.55;;;;;;;22.80;89.74;101642.41;5049968;28;20029;-80
2022/08/20 08:25:51;;;;;;;26.52;16.13;;;;;;;23.03;87.03;101639.47;5049283;28;20370;-81
2022/08/20 08:28:17;;;;;;;21.58;13.07;;;;;;;22.63;81.83;101645.13;5049592;28;20552;-81
2022/08/20 08:30:45;;;;;;;25.60;14.00;;;;;;;22.09;85.34;101641.47;5048786;28;20029;-80
2022/08/20 08:33:28;;;;;;;23.37;15.90;;;;;;;21.69;92.36;101651.59;5049348;28;20275;-80
2022/08/20 08:36:01;;;;;;;20.42;13.00;;;;;;;21.35;89.59;101648.31;5049507;28;20021;-80
2022/08/20 08:38:28;;;;;;;23.80;13.20;;;;;;;21.09;88.06;101642.72;5031489;28;20392;-81
2022/08/20 08:40:56;;;;;;;23.35;13.35;;;;;;;21.23;89.17;101645.38;5048722;28;20029;-80
2022/08/20 08:43:24;;;;;;;18.95;12.70;;;;;;;21.77;87.73;101656.25;5049669;28;20043;-81
2022/08/20 08:45:57;;;;;;;23.20;12.65;;;;;;;22.08;86.09;101663.63;5049336;28;20021;-81
2022/08/20 08:48:31;;;;;;;19.67;11.90;;;;;;;22.01;82.47;101668.72;5049466;28;20028;-80
2022/08/20 08:50:58;;;;;;;18.45;10.27;;;;;;;21.86;83.97;101668.03;5048855;28;20024;-80
2022/08/20 08:53:32;;;;;;;20.42;10.52;;;;;;;21.74;84.06;101667.81;5049017;28;20060;-80
2022/08/20 08:55:59;;;;;;;21.07;8.27;;;;;;;21.70;80.11;101669.56;5049548;28;20028;-80
2022/08/20 08:58:24;;;;;;;15.93;8.23;;;;;;;21.62;79.25;101663.75;5049425;28;20272;-80
2022/08/20 09:00:49;;;;;;;15.25;8.60;;;;;;;21.68;82.05;101667.13;5048535;28;20472;-81
2022/08/20 09:03:31;;;;;;;16.50;7.53;;;;;;;21.86;83.07;101672.66;5052820;28;20039;-80
2022/08/20 09:05:59;;;;;;;15.68;7.25;;;;;;;21.83;77.73;101665.94;5052739;28;20033;-80
2022/08/20 09:08:30;;;;;;;13.05;6.43;;;;;;;21.65;75.38;101661.50;5053003;28;20028;-80
2022/08/20 09:11:03;;;;;;;13.73;6.20;;;;;;;21.61;76.22;101664.06;5052288;28;20032;-80
2022/08/20 09:13:28;;;;;;;13.73;7.47;;;;;;;21.89;78.74;101672.88;5052677;28;20739;-80
2022/08/20 09:15:53;;;;;;;14.25;7.05;;;;;;;22.06;76.10;101674.84;5052752;28;20049;-80
2022/08/20 09:18:19;;;;;;;16.87;7.53;;;;;;;22.31;74.43;101668.97;5052803;28;20040;-80
2022/08/20 09:20:44;;;;;;;14.00;7.13;;;;;;;22.45;73.54;101660.69;5051695;28;20107;-81
2022/08/20 09:23:09;;;;;;;14.70;7.10;;;;;;;22.61;71.90;101670.00;5053024;28;20060;-80
2022/08/20 09:25:35;;;;;;;16.77;7.73;;;;;;;22.75;73.15;101669.88;5052586;28;20527;-80
2022/08/20 09:28:00;;;;;;;17.53;7.00;;;;;;;22.82;69.17;101661.19;5052037;28;20029;-80
2022/08/20 09:30:26;;;;;;;14.98;5.72;;;;;;;22.71;70.47;101668.91;5051853;28;20021;-80
2022/08/20 09:32:51;;;;;;;13.00;6.70;;;;;;;22.57;71.31;101668.25;5052036;28;20534;-80
2022/08/20 09:35:16;;;;;;;17.33;5.83;;;;;;;22.54;67.94;101667.75;5052511;28;20037;-80
2022/08/20 09:37:42;;;;;;;10.50;5.35;;;;;;;22.62;66.39;101666.16;5052517;28;20429;-81
2022/08/20 09:40:08;;;;;;;12.83;6.20;;;;;;;22.79;67.21;101656.38;5051723;28;20377;-81
2022/08/20 09:42:35;;;;;;;14.60;6.60;;;;;;;22.89;67.45;101656.06;5034766;28;20111;-81
2022/08/20 09:45:01;;;;;;;13.30;6.43;;;;;;;23.07;69.39;101659.56;5052150;28;20037;-80
2022/08/20 09:47:27;;;;;;;10.77;5.30;;;;;;;23.25;67.42;101668.59;5052172;28;20283;-80
2022/08/20 09:49:52;;;;;;;17.98;5.00;;;;;;;22.96;63.69;101661.81;5051232;28;20029;-80
2022/08/20 09:52:31;;;;;;;10.97;4.97;;;;;;;22.89;69.83;101656.06;5052361;28;20376;-80
2022/08/20 09:55:06;;;;;;;12.30;4.38;;;;;;;22.93;66.50;101667.13;5052000;28;20393;-80
2022/08/20 09:57:33;;;;;;;11.02;4.22;;;;;;;23.05;64.92;101666.50;5052242;28;20036;-80
2022/08/20 10:00:04;;;;;;;11.68;5.60;;;;;;;23.36;65.30;101668.25;5050987;28;20072;-80
2022/08/20 10:02:29;;;;;;;15.25;5.38;;;;;;;23.64;64.21;101667.84;5052187;28;20021;-80
2022/08/20 10:04:54;;;;;;;8.40;3.57;;;;;;;23.52;60.17;101661.13;5051735;28;20029;-80
2022/08/20 10:07:20;;;;;;;8.57;3.40;;;;;;;23.26;59.84;101669.38;5051938;28;20025;-80
2022/08/20 10:09:45;;;;;;;9.90;3.20;;;;;;;22.92;61.39;101662.78;5051276;28;20365;-80
2022/08/20 10:12:10;;;;;;;11.87;3.90;;;;;;;23.08;62.13;101666.66;5051206;28;20100;-80
2022/08/20 10:14:36;;;;;;;8.90;3.50;;;;;;;23.25;58.97;101662.31;5051256;28;20468;-80
2022/08/20 10:17:02;;;;;;;8.63;4.23;;;;;;;23.47;61.14;101663.22;5051701;28;20052;-80
2022/08/20 10:19:29;;;;;;;12.75;3.53;;;;;;;23.54;55.42;101664.34;5051795;28;20064;-80
2022/08/20 10:21:55;;;;;;;8.55;2.47;;;;;;;23.43;53.79;101655.66;5051090;28;20029;-80
2022/08/20 10:24:21;;;;;;;9.80;2.87;;;;;;;23.42;53.60;101664.22;5051358;28;20067;-80
2022/08/20 10:26:47;;;;;;;7.20;2.67;;;;;;;23.64;56.43;101662.38;5051232;28;20029;-80
2022/08/20 10:29:13;;;;;;;9.17;2.93;;;;;;;23.88;53.88;101668.06;5051042;28;20048;-80
2022/08/20 10:31:39;;;;;;;9.53;3.23;;;;;;;24.00;54.94;101672.09;5050301;28;20663;-80
2022/08/20 10:34:04;;;;;;;9.00;3.00;;;;;;;24.08;52.53;101670.44;5051307;28;20064;-80
2022/08/20 10:36:29;;;;;;;9.00;3.10;;;;;;;24.27;54.14;101675.47;5051147;28;20029;-80
2022/08/20 10:38:54;;;;;;;9.77;3.50;;;;;;;24.51;52.95;101661.13;5050803;28;20416;-80
2022/08/20 10:41:20;;;;;;;14.37;3.50;;;;;;;24.81;52.69;101666.59;5050669;28;20680;-80
2022/08/20 10:43:45;;;;;;;10.23;3.60;;;;;;;25.33;51.75;101669.97;5050510;28;20025;-80
2022/08/20 10:46:10;;;;;;;7.13;3.43;;;;;;;25.82;52.56;101672.03;5051082;28;20311;-80
2022/08/20 10:48:36;;;;;;;12.17;4.30;;;;;;;25.99;49.29;101676.47;5051075;28;20050;-80
2022/08/20 10:51:02;;;;;;;8.07;3.38;;;;;;;25.88;50.12;101670.66;5050463;28;20025;-80
2022/08/20 10:53:28;;;;;;;10.27;3.80;;;;;;;25.46;50.40;101668.88;5051004;28;20021;-80
2022/08/20 10:55:53;;;;;;;11.70;3.60;;;;;;;24.91;51.23;101665.38;5050526;28;20530;-80
2022/08/20 10:58:19;;;;;;;12.43;4.47;;;;;;;24.53;53.10;101674.50;5050953;28;20029;-80
2022/08/20 11:00:45;;;;;;;8.68;3.63;;;;;;;24.49;54.88;101671.63;5050065;28;20025;-80
2022/08/20 11:03:10;;;;;;;12.90;4.20;;;;;;;24.60;55.18;101667.38;5051058;28;20036;-80
2022/08/20 11:05:36;;;;;;;8.63;3.40;;;;;;;24.54;55.09;101665.94;5050694;28;20025;-80
2022/08/20 11:08:03;;;;;;;8.67;3.83;;;;;;;24.39;54.87;101677.50;5032985;28;20025;-80
2022/08/20 11:10:30;;;;;;;12.27;3.47;;;;;;;24.25;55.95;101667.59;5049495;28;20311;-80
2022/08/20 11:12:55;;;;;;;9.88;3.50;;;;;;;24.27;56.25;101675.47;5050517;28;20070;-80
2022/08/20 11:15:21;;;;;;;8.43;3.47;;;;;;;24.07;53.25;101666.88;5050661;28;20036;-80